Hlavní strana
METAR-TAF:

METAR-TAF

Letiště :

Iğdır, Turecko

zeměpisná šířka: 39-58-36N, zeměpisná délka: 43-52-36E, výška: 945 m

Aktuální stav počasí

Zpráva byla vytvořena před 11 hodinami a 10 minutami, v 12:50 UTC
Východoseverovýchodní vítr 5 kt
Teplota 3°C
Vlhkost vzduchu 75%
Tlak 1019 hPa
Viditelnost: 4000 m
Zataženo ve výšce 2000 ft
kouřmo

METAR: LTCT 121250Z 06005KT 4000 BR OVC020 03/M01 Q1019

Čas: 03:00 (00:00 UTC)

Předpověď počasí

Zpráva byla vytvořena před 1 hodinou a 20 minutami, v 22:40 UTC
Předpověď platná od 13 v 00 UTC do 13 v 09 UTC
vítr z různých směrů 2 kt
Viditelnost: 4000 m
Oblačno až skoro zataženo ve výšce 2000 ft
Oblačno až skoro zataženo ve výšce 6000 ft
kouřmo
Dočasný
od 13 v 00 UTC do 13 v 04 UTC
slabé sněžení

TAF: LTCT 122240Z 1300/1309 VRB02KT 4000 BR BKN020 BKN060 TEMPO 1300/1304 -SN

Stav a předpovědi počasí z více než 4 000 letišť (zprávy METAR a TAF).

Červené a žluté tečky na mapě představují dostupné meteorologické stanice.

Když kurzor umístíte na tečku, zobrazí se název stanice.

Pak kliknutím zobrazíte stav a předpověď počasí.

Chcete-li změnit mapu, kliknutím na zelené tlačítko se znaménkem +mapu přiblížíte, kliknutím na zelené tlačítko se znaménkem – mapu oddálíte a kliknutím na zelené šipky přejdete na sousední mapy.


METAR-TAF: